createdAt,value
2019-05-28T00:01:10.648Z,99.90
2019-05-28T00:03:40.599Z,99.90
2019-05-28T00:06:10.473Z,99.90
2019-05-28T00:08:40.487Z,99.90
2019-05-28T00:11:10.347Z,99.90
2019-05-28T00:13:40.216Z,99.90
2019-05-28T00:16:10.390Z,99.90
2019-05-28T00:18:40.576Z,99.90
2019-05-28T00:21:11.486Z,99.90
2019-05-28T00:23:41.313Z,99.90
2019-05-28T00:26:11.213Z,99.90
2019-05-28T00:28:41.142Z,99.90
2019-05-28T00:31:11.583Z,99.90
2019-05-28T00:33:41.500Z,99.90
2019-05-28T00:36:11.488Z,99.90
2019-05-28T00:38:41.360Z,99.90
2019-05-28T00:41:11.284Z,99.90
2019-05-28T00:43:41.211Z,99.90
2019-05-28T00:46:11.211Z,99.90
2019-05-28T00:48:41.305Z,99.90
2019-05-28T00:51:11.303Z,99.90
2019-05-28T00:53:41.489Z,99.90
2019-05-28T00:56:12.040Z,99.90
2019-05-28T00:58:42.290Z,99.90
2019-05-28T01:01:13.224Z,99.90
2019-05-28T01:03:43.267Z,99.90
2019-05-28T01:06:13.156Z,99.90
2019-05-28T01:08:43.149Z,99.90
2019-05-28T01:11:15.895Z,99.90
2019-05-28T01:13:45.797Z,99.90
2019-05-28T01:16:17.215Z,99.90
2019-05-28T01:18:47.247Z,99.90
2019-05-28T01:21:17.373Z,99.90
2019-05-28T01:23:47.371Z,99.90
2019-05-28T01:26:17.295Z,99.90
2019-05-28T01:28:47.187Z,99.90
2019-05-28T01:31:17.482Z,99.90
2019-05-28T01:33:47.407Z,99.90
2019-05-28T01:36:17.425Z,99.90
2019-05-28T01:38:47.581Z,99.90
2019-05-28T01:41:17.654Z,99.90
2019-05-28T01:43:47.724Z,99.90
2019-05-28T01:46:17.953Z,99.90
2019-05-28T01:48:48.220Z,99.90
2019-05-28T01:51:18.321Z,99.90
2019-05-28T01:53:48.195Z,99.90
2019-05-28T01:56:18.209Z,99.90
2019-05-28T01:58:48.013Z,99.90
2019-05-28T02:01:17.971Z,99.90
2019-05-28T02:03:47.881Z,99.90
2019-05-28T02:06:17.832Z,99.90
2019-05-28T02:08:48.025Z,99.90
2019-05-28T02:11:17.981Z,99.90
2019-05-28T02:13:48.068Z,99.90
2019-05-28T02:16:17.984Z,99.90
2019-05-28T02:18:47.964Z,99.90
2019-05-28T02:21:17.920Z,99.90
2019-05-28T02:23:47.762Z,99.90
2019-05-28T02:26:17.675Z,99.90
2019-05-28T02:28:48.396Z,99.90
2019-05-28T02:31:27.343Z,99.90
2019-05-28T02:33:50.298Z,99.90
2019-05-28T02:36:20.312Z,99.90
2019-05-28T02:38:50.226Z,99.90
2019-05-28T02:41:20.356Z,99.90
2019-05-28T02:43:50.185Z,99.90
2019-05-28T02:46:20.057Z,99.90
2019-05-28T02:48:49.954Z,99.90
2019-05-28T02:51:20.486Z,99.90
2019-05-28T02:53:51.280Z,99.90
2019-05-28T02:56:24.025Z,99.90
2019-05-28T02:58:55.459Z,99.90
2019-05-28T03:01:26.576Z,99.90
2019-05-28T03:03:57.367Z,99.90
2019-05-28T03:06:29.357Z,99.90
2019-05-28T03:09:01.304Z,99.90
2019-05-28T03:11:31.120Z,99.90
2019-05-28T03:14:01.166Z,99.90
2019-05-28T03:16:34.048Z,99.90
2019-05-28T03:19:04.916Z,99.90
2019-05-28T03:21:36.999Z,99.90
2019-05-28T03:24:07.951Z,99.90
2019-05-28T03:26:37.771Z,99.90
2019-05-28T03:29:07.724Z,99.90
2019-05-28T03:31:37.874Z,99.90
2019-05-28T03:34:07.832Z,99.90
2019-05-28T03:36:38.156Z,99.90
2019-05-28T03:39:08.306Z,99.90
2019-05-28T03:41:38.378Z,99.90
2019-05-28T03:44:08.515Z,99.90
2019-05-28T03:46:38.454Z,99.90
2019-05-28T03:49:08.341Z,99.90
2019-05-28T03:51:38.141Z,99.90
2019-05-28T03:54:08.000Z,99.90
2019-05-28T03:56:37.890Z,99.90
2019-05-28T03:59:07.846Z,99.90
2019-05-28T04:01:37.727Z,99.90
2019-05-28T04:04:07.788Z,99.90
2019-05-28T04:06:37.693Z,99.90
2019-05-28T04:09:08.907Z,99.90
2019-05-28T04:11:44.750Z,99.90
2019-05-28T04:14:11.265Z,99.90
2019-05-28T04:16:41.218Z,99.90
2019-05-28T04:19:11.189Z,99.90
2019-05-28T04:21:41.000Z,99.90
2019-05-28T04:24:10.891Z,99.90
2019-05-28T04:26:40.851Z,99.90
2019-05-28T04:29:10.696Z,99.90
2019-05-28T04:31:40.588Z,99.90
2019-05-28T04:34:10.652Z,99.90
2019-05-28T04:36:40.691Z,99.90
2019-05-28T04:39:12.225Z,99.90
2019-05-28T04:41:42.168Z,99.90
2019-05-28T04:44:12.035Z,99.90
2019-05-28T04:46:41.879Z,99.90
2019-05-28T04:49:12.055Z,99.90
2019-05-28T04:51:41.853Z,99.90
2019-05-28T04:54:11.876Z,99.90
2019-05-28T04:56:41.733Z,99.90
2019-05-28T04:59:11.633Z,99.90
2019-05-28T05:01:41.468Z,99.90
2019-05-28T05:04:11.453Z,99.90
2019-05-28T05:06:41.927Z,99.90
2019-05-28T05:09:12.098Z,97.20
2019-05-28T05:11:42.361Z,95.70
2019-05-28T05:14:12.256Z,94.20
2019-05-28T05:16:44.177Z,92.70
2019-05-28T05:19:14.231Z,92.50
2019-05-28T05:21:44.217Z,92.00
2019-05-28T05:24:17.602Z,92.10
2019-05-28T05:26:55.007Z,92.40
2019-05-28T05:29:25.277Z,92.70
2019-05-28T05:31:55.448Z,93.50
2019-05-28T05:34:26.631Z,92.80
2019-05-28T05:36:56.738Z,91.10
2019-05-28T05:39:26.586Z,89.30
2019-05-28T05:41:56.575Z,85.50
2019-05-28T05:44:26.480Z,83.40
2019-05-28T05:46:56.406Z,79.50
2019-05-28T05:49:26.395Z,77.80
2019-05-28T05:51:56.409Z,75.90
2019-05-28T05:54:26.768Z,75.30
2019-05-28T05:56:57.878Z,73.90
2019-05-28T05:59:27.904Z,75.80
2019-05-28T06:01:57.807Z,74.90
2019-05-28T06:04:27.681Z,76.50
2019-05-28T06:06:57.583Z,78.60
2019-05-28T06:09:27.540Z,79.70
2019-05-28T06:11:58.403Z,81.60
2019-05-28T06:14:28.309Z,82.70
2019-05-28T06:16:58.165Z,83.30
2019-05-28T06:19:28.130Z,84.20
2019-05-28T06:21:58.035Z,85.00
2019-05-28T06:24:27.965Z,84.90
2019-05-28T06:26:57.837Z,85.10
2019-05-28T06:29:28.348Z,86.10
2019-05-28T06:31:58.230Z,87.60
2019-05-28T06:34:28.090Z,87.20
2019-05-28T06:36:59.814Z,89.00
2019-05-28T06:39:30.136Z,88.70
2019-05-28T06:42:23.751Z,87.90
2019-05-28T06:45:01.315Z,85.90
2019-05-28T06:47:45.860Z,82.00
2019-05-28T06:50:23.269Z,73.90
2019-05-28T06:53:55.012Z,66.30
2019-05-28T06:56:41.170Z,59.00
2019-05-28T07:00:06.388Z,52.60
2019-05-28T07:03:11.115Z,45.60
2019-05-28T07:06:36.973Z,38.00
2019-05-28T07:09:12.438Z,35.00
2019-05-28T07:12:04.111Z,32.10
2019-05-28T07:15:00.064Z,31.00
2019-05-28T07:17:53.603Z,29.00
2019-05-28T07:20:51.646Z,29.00
2019-05-28T07:23:23.966Z,28.10
2019-05-28T07:26:02.450Z,28.20
2019-05-28T07:28:43.076Z,26.10
2019-05-28T07:31:20.081Z,25.30
2019-05-28T07:34:01.245Z,26.20
2019-05-28T07:36:45.276Z,24.90
2019-05-28T07:39:34.924Z,26.30
2019-05-28T07:42:14.501Z,25.80
2019-05-28T07:44:45.723Z,26.60
2019-05-28T07:47:17.357Z,28.00
2019-05-28T07:49:55.809Z,27.90
2019-05-28T07:52:49.632Z,28.10
2019-05-28T07:55:19.447Z,29.80
2019-05-28T07:57:56.878Z,30.60
2019-05-28T08:00:47.789Z,31.10
2019-05-28T08:03:30.878Z,28.80
2019-05-28T08:06:09.823Z,28.80
2019-05-28T08:09:13.009Z,27.70
2019-05-28T08:12:00.007Z,27.80
2019-05-28T08:14:29.055Z,27.90
2019-05-28T08:17:07.989Z,28.30
2019-05-28T08:19:55.385Z,27.40
2019-05-28T08:22:41.630Z,27.70
2019-05-28T08:25:27.515Z,29.50
2019-05-28T08:27:47.512Z,28.70
2019-05-28T08:30:28.498Z,29.00
2019-05-28T08:33:32.759Z,30.00
2019-05-28T08:36:34.566Z,32.00
2019-05-28T08:39:39.079Z,33.00
2019-05-28T08:42:32.239Z,30.60
2019-05-28T08:45:43.829Z,30.10
2019-05-28T08:48:18.570Z,28.20
2019-05-28T08:51:10.880Z,29.60
2019-05-28T08:54:06.318Z,30.30
2019-05-28T08:56:56.868Z,33.60
2019-05-28T09:00:11.420Z,36.50
2019-05-28T09:02:28.986Z,37.60
2019-05-28T09:05:25.932Z,38.00
2019-05-28T09:11:46.327Z,37.70
2019-05-28T09:14:55.884Z,39.20
2019-05-28T09:17:36.444Z,39.90
2019-05-28T09:20:20.543Z,41.40
2019-05-28T09:23:19.539Z,42.50
2019-05-28T09:26:15.993Z,46.10
2019-05-28T09:28:56.022Z,49.50
2019-05-28T09:31:37.083Z,48.50
2019-05-28T09:34:12.506Z,53.60
2019-05-28T09:36:50.333Z,55.70
2019-05-28T09:39:37.139Z,54.80
2019-05-28T09:42:14.650Z,56.00
2019-05-28T09:44:53.846Z,56.70
2019-05-28T09:47:35.952Z,55.40
2019-05-28T09:50:30.760Z,54.20
2019-05-28T09:53:01.999Z,54.20
2019-05-28T09:55:58.077Z,54.00
2019-05-28T09:58:50.890Z,58.40
2019-05-28T10:01:52.591Z,58.20
2019-05-28T10:04:49.628Z,59.20
2019-05-28T10:07:24.188Z,58.70
2019-05-28T10:10:13.441Z,62.40
2019-05-28T10:13:03.379Z,60.10
2019-05-28T10:15:34.067Z,60.00
2019-05-28T10:18:21.850Z,57.80
2019-05-28T10:20:57.142Z,58.60
2019-05-28T10:23:42.782Z,58.90
2019-05-28T10:26:17.302Z,59.70
2019-05-28T10:29:08.315Z,61.80
2019-05-28T10:32:00.762Z,59.70
2019-05-28T10:34:33.440Z,61.70
2019-05-28T10:37:24.847Z,62.70
2019-05-28T10:39:44.511Z,63.70
2019-05-28T10:42:14.932Z,64.20
2019-05-28T10:44:45.429Z,63.10
2019-05-28T10:47:15.401Z,63.20
2019-05-28T10:49:45.712Z,63.50
2019-05-28T10:52:23.495Z,63.60
2019-05-28T10:54:54.354Z,63.50
2019-05-28T10:57:24.686Z,63.80
2019-05-28T11:00:07.875Z,63.90
2019-05-28T11:02:50.148Z,63.20
2019-05-28T11:05:25.424Z,59.20
2019-05-28T11:08:03.607Z,57.20
2019-05-28T11:10:33.378Z,58.70
2019-05-28T11:13:05.135Z,58.80
2019-05-28T11:15:37.929Z,56.80
2019-05-28T11:18:22.842Z,56.30
2019-05-28T11:21:17.923Z,56.20
2019-05-28T11:25:03.812Z,52.50
2019-05-28T11:27:32.930Z,51.20
2019-05-28T11:31:31.798Z,46.60
2019-05-28T11:34:25.290Z,46.80
2019-05-28T11:41:13.070Z,48.80
2019-05-28T12:03:04.227Z,48.40
2019-05-28T12:07:26.219Z,46.80
2019-05-28T12:09:58.197Z,47.50
2019-05-28T12:12:32.207Z,49.70
2019-05-28T12:15:08.801Z,52.50
2019-05-28T12:21:20.384Z,52.70
2019-05-28T12:24:02.314Z,52.60
2019-05-28T12:26:51.680Z,54.50
2019-05-28T12:30:04.264Z,59.30
2019-05-28T12:32:40.883Z,58.20
2019-05-28T12:35:27.151Z,63.70
2019-05-28T12:37:50.535Z,64.70
2019-05-28T12:40:24.559Z,63.50
2019-05-28T12:42:54.912Z,66.40
2019-05-28T12:45:35.373Z,66.00
2019-05-28T12:48:12.618Z,65.80
2019-05-28T12:50:45.579Z,64.50
2019-05-28T12:53:18.541Z,64.50
2019-05-28T13:08:07.267Z,61.00
2019-05-28T13:10:26.507Z,61.40
2019-05-28T13:13:03.353Z,60.70
2019-05-28T13:26:37.565Z,56.00
2019-05-28T13:27:41.270Z,55.20
2019-05-28T13:30:36.758Z,54.40
2019-05-28T13:33:53.337Z,55.00
2019-05-28T13:44:10.838Z,53.00
2019-05-28T13:47:00.119Z,54.80
2019-05-28T13:49:42.152Z,54.10
2019-05-28T13:53:02.249Z,53.70
2019-05-28T13:56:00.504Z,53.50
2019-05-28T13:58:45.654Z,52.30
2019-05-28T14:01:40.460Z,54.90
2019-05-28T14:04:46.464Z,53.30
2019-05-28T14:07:51.763Z,53.80
2019-05-28T14:11:45.582Z,53.70
2019-05-28T14:25:46.587Z,58.00
2019-05-28T14:32:06.955Z,56.90
2019-05-28T14:35:00.177Z,56.50
2019-05-28T14:39:52.900Z,54.60
2019-05-28T14:49:14.847Z,54.70
2019-05-28T14:52:32.276Z,56.20
2019-05-28T14:58:21.743Z,55.10
2019-05-28T15:00:52.380Z,56.00
2019-05-28T15:03:25.959Z,56.70
2019-05-28T15:10:51.936Z,57.00
2019-05-28T15:13:47.537Z,57.50
2019-05-28T15:16:54.447Z,61.00
2019-05-28T15:22:47.572Z,57.50
2019-05-28T15:26:41.306Z,60.70
2019-05-28T15:49:46.190Z,58.50
2019-05-28T15:53:38.378Z,59.20
2019-05-28T16:00:06.784Z,61.10
2019-05-28T16:02:44.405Z,60.70
2019-05-28T16:05:16.482Z,61.70
2019-05-28T16:07:46.697Z,61.00
2019-05-28T16:10:19.790Z,62.40
2019-05-28T16:13:56.040Z,62.10
2019-05-28T16:17:02.566Z,60.80
2019-05-28T16:19:37.494Z,61.60
2019-05-28T16:22:07.471Z,62.00
2019-05-28T17:03:37.884Z,65.00
2019-05-28T17:11:35.169Z,66.30
2019-05-28T17:26:54.582Z,66.00
2019-05-28T17:30:23.598Z,66.00
2019-05-28T17:36:53.099Z,66.50
2019-05-28T17:39:52.925Z,66.90
2019-05-28T17:58:59.297Z,69.10
2019-05-28T18:05:53.321Z,71.00
2019-05-28T18:08:33.411Z,69.30
2019-05-28T18:11:13.121Z,68.40
2019-05-28T18:13:55.354Z,70.50
2019-05-28T18:16:25.619Z,70.90
2019-05-28T18:19:42.673Z,68.70
2019-05-28T18:22:37.100Z,69.10
2019-05-28T18:26:03.900Z,69.20
2019-05-28T18:28:59.472Z,67.80
2019-05-28T18:35:58.043Z,67.80
2019-05-28T18:46:00.646Z,69.90
2019-05-28T18:49:51.874Z,67.70
2019-05-28T18:53:25.125Z,68.60
2019-05-28T19:00:18.624Z,70.80
2019-05-28T19:14:54.334Z,69.20
2019-05-28T19:17:31.902Z,69.90
2019-05-28T19:23:44.988Z,70.20
2019-05-28T19:26:24.951Z,70.90
2019-05-28T19:29:03.315Z,71.70
2019-05-28T19:31:58.558Z,72.80
2019-05-28T19:34:36.012Z,72.60
2019-05-28T19:37:11.922Z,73.80
2019-05-28T19:39:47.109Z,76.70
2019-05-28T19:42:27.001Z,74.40
2019-05-28T19:44:58.992Z,75.80
2019-05-28T19:47:30.560Z,76.60
2019-05-28T19:50:16.866Z,76.50
2019-05-28T19:52:56.470Z,77.20
2019-05-28T19:55:26.169Z,79.70
2019-05-28T19:58:39.479Z,78.70
2019-05-28T20:01:26.805Z,78.60
2019-05-28T20:04:08.687Z,80.70
2019-05-28T20:10:25.682Z,81.50
2019-05-28T20:12:59.037Z,81.00
2019-05-28T20:15:31.003Z,82.60
2019-05-28T20:18:45.291Z,81.30
2019-05-28T20:22:00.608Z,81.30
2019-05-28T20:24:35.221Z,82.30
2019-05-28T20:27:59.134Z,81.80
2019-05-28T20:31:28.926Z,82.10
2019-05-28T20:34:03.946Z,81.90
2019-05-28T20:37:18.767Z,82.60
2019-05-28T20:40:43.004Z,82.50
2019-05-28T20:52:13.386Z,83.40
2019-05-28T20:55:56.168Z,85.20
2019-05-28T20:59:25.386Z,82.60
2019-05-28T21:02:05.057Z,83.20
2019-05-28T21:04:52.456Z,83.10
2019-05-28T21:08:18.490Z,82.60
2019-05-28T21:10:54.965Z,82.30
2019-05-28T21:13:53.077Z,83.50
2019-05-28T21:16:20.629Z,83.60
2019-05-28T21:20:00.755Z,83.60
2019-05-28T21:23:22.649Z,83.50
2019-05-28T21:25:16.544Z,83.20
2019-05-28T21:37:59.947Z,84.40
2019-05-28T21:40:30.115Z,85.10
2019-05-28T21:43:24.160Z,86.20
2019-05-28T21:46:05.743Z,86.10
2019-05-28T21:48:46.307Z,87.60
2019-05-28T21:51:16.335Z,88.10
2019-05-28T21:53:46.416Z,88.20
2019-05-28T21:56:18.486Z,88.70
2019-05-28T21:58:49.321Z,89.20
2019-05-28T22:01:33.922Z,89.50
2019-05-28T22:04:03.566Z,90.00
2019-05-28T22:06:45.124Z,90.70
2019-05-28T22:09:25.896Z,90.30
2019-05-28T22:11:59.630Z,90.70
2019-05-28T22:14:35.835Z,91.00
2019-05-28T22:17:13.046Z,91.00
2019-05-28T22:19:42.948Z,91.40
2019-05-28T22:22:18.516Z,92.10
2019-05-28T22:24:48.896Z,91.70
2019-05-28T22:27:20.476Z,92.10
2019-05-28T22:29:57.003Z,91.90
2019-05-28T22:32:32.412Z,92.30
2019-05-28T22:35:04.547Z,92.60
2019-05-28T22:37:42.146Z,92.80
2019-05-28T22:40:10.338Z,93.30
2019-05-28T22:42:40.773Z,92.60
2019-05-28T22:45:12.298Z,92.70
2019-05-28T22:47:42.449Z,93.00
2019-05-28T22:50:22.205Z,93.00
2019-05-28T22:52:45.058Z,93.10
2019-05-28T22:55:15.797Z,93.60
2019-05-28T22:57:55.596Z,93.90
2019-05-28T23:00:25.877Z,94.40
2019-05-28T23:02:55.736Z,94.20
2019-05-28T23:05:25.977Z,94.70
2019-05-28T23:07:55.848Z,94.80
2019-05-28T23:10:25.846Z,95.30
2019-05-28T23:12:55.805Z,95.30
2019-05-28T23:15:25.737Z,95.70
2019-05-28T23:17:55.722Z,95.70
2019-05-28T23:20:26.237Z,95.90
2019-05-28T23:22:56.079Z,96.10
2019-05-28T23:25:26.191Z,97.00
2019-05-28T23:27:56.060Z,96.40
2019-05-28T23:30:26.069Z,96.50
2019-05-28T23:32:56.071Z,96.70
2019-05-28T23:35:26.075Z,96.80
2019-05-28T23:37:55.894Z,97.00
2019-05-28T23:40:25.733Z,96.90
2019-05-28T23:42:55.796Z,97.10
2019-05-28T23:45:25.769Z,97.00
2019-05-28T23:47:56.042Z,97.10
2019-05-28T23:50:26.014Z,97.10
2019-05-28T23:52:56.048Z,97.40
2019-05-28T23:55:25.865Z,97.40
2019-05-28T23:57:55.765Z,97.50
